createdAt,value
2023-05-18T00:02:04.006Z,102711.63
2023-05-18T00:04:33.240Z,102722.28
2023-05-18T00:07:03.839Z,102715.22
2023-05-18T00:09:31.724Z,102713.59
2023-05-18T00:11:59.284Z,102714.72
2023-05-18T00:14:26.556Z,102716.13
2023-05-18T00:16:56.513Z,102717.41
2023-05-18T00:19:24.489Z,102714.00
2023-05-18T00:21:52.522Z,102718.09
2023-05-18T00:24:19.423Z,102713.19
2023-05-18T00:26:47.504Z,102715.66
2023-05-18T00:29:14.823Z,102725.19
2023-05-18T00:31:42.300Z,102725.19
2023-05-18T00:34:09.428Z,102729.25
2023-05-18T00:36:37.481Z,102731.31
2023-05-18T00:39:04.717Z,102721.78
2023-05-18T00:41:31.695Z,102732.16
2023-05-18T00:43:58.956Z,102725.13
2023-05-18T00:46:26.689Z,102727.25
2023-05-18T00:48:54.665Z,102729.78
2023-05-18T00:51:25.157Z,102730.59
2023-05-18T00:53:53.241Z,102722.78
2023-05-18T00:56:23.522Z,102729.41
2023-05-18T00:58:55.628Z,102725.72
2023-05-18T01:01:29.534Z,102735.47
2023-05-18T01:03:57.689Z,102731.75
2023-05-18T01:06:27.510Z,102741.66
2023-05-18T01:08:55.216Z,102732.56
2023-05-18T01:11:27.004Z,102735.09
2023-05-18T01:13:56.269Z,102733.94
2023-05-18T01:16:27.077Z,102738.91
2023-05-18T01:19:00.837Z,102739.44
2023-05-18T01:21:46.617Z,102739.50
2023-05-18T01:24:16.030Z,102738.06
2023-05-18T01:26:45.397Z,102733.53
2023-05-18T01:29:13.751Z,102735.84
2023-05-18T01:31:40.612Z,102739.22
2023-05-18T01:34:07.421Z,102736.97
2023-05-18T01:36:34.333Z,102735.84
2023-05-18T01:39:01.993Z,102745.97
2023-05-18T01:41:29.609Z,102743.16
2023-05-18T01:44:15.832Z,102738.47
2023-05-18T01:47:04.357Z,102744.78
2023-05-18T01:49:34.022Z,102744.19
2023-05-18T01:52:03.477Z,102741.88
2023-05-18T01:54:31.736Z,102739.03
2023-05-18T01:56:59.026Z,102744.13
2023-05-18T01:59:26.458Z,102753.78
2023-05-18T02:01:59.662Z,102750.03
2023-05-18T02:04:27.589Z,102739.78
2023-05-18T02:06:55.271Z,102747.19
2023-05-18T02:09:22.295Z,102750.91
2023-05-18T02:11:49.653Z,102746.16
2023-05-18T02:14:16.753Z,102747.19
2023-05-18T02:16:47.213Z,102750.16
2023-05-18T02:19:15.073Z,102743.59
2023-05-18T02:21:43.610Z,102752.25
2023-05-18T02:24:11.813Z,102748.75
2023-05-18T02:26:38.805Z,102743.59
2023-05-18T02:29:12.176Z,102750.88
2023-05-18T02:31:39.216Z,102749.44
2023-05-18T02:34:06.266Z,102756.44
2023-05-18T02:36:40.103Z,102756.38
2023-05-18T02:39:07.704Z,102754.47
2023-05-18T02:41:35.014Z,102750.09
2023-05-18T02:44:05.329Z,102753.41
2023-05-18T02:46:32.246Z,102751.91
2023-05-18T02:48:59.133Z,102747.44
2023-05-18T02:51:25.961Z,102760.97
2023-05-18T02:53:52.828Z,102761.84
2023-05-18T02:56:19.674Z,102755.47
2023-05-18T02:58:46.596Z,102750.72
2023-05-18T03:01:13.684Z,102758.19
2023-05-18T03:03:42.275Z,102752.38
2023-05-18T03:06:09.865Z,102754.84
2023-05-18T03:08:41.448Z,102756.50
2023-05-18T03:11:08.294Z,102751.56
2023-05-18T03:13:35.101Z,102754.63
2023-05-18T03:16:02.024Z,102760.22
2023-05-18T03:18:28.836Z,102764.94
2023-05-18T03:20:56.257Z,102763.50
2023-05-18T03:23:23.252Z,102760.63
2023-05-18T03:25:53.786Z,102759.69
2023-05-18T03:28:21.049Z,102764.44
2023-05-18T03:30:48.362Z,102758.03
2023-05-18T03:33:15.254Z,102759.28
2023-05-18T03:35:42.491Z,102745.94
2023-05-18T03:38:09.773Z,102756.81
2023-05-18T03:40:37.083Z,102759.28
2023-05-18T03:43:04.060Z,102755.81
2023-05-18T03:45:31.133Z,102763.28
2023-05-18T03:47:58.392Z,102767.72
2023-05-18T03:50:25.242Z,102770.59
2023-05-18T03:52:53.411Z,102764.91
2023-05-18T03:55:21.774Z,102773.28
2023-05-18T03:57:48.852Z,102767.53
2023-05-18T04:00:16.078Z,102773.28
2023-05-18T04:02:43.111Z,102767.06
2023-05-18T04:05:10.088Z,102773.34
2023-05-18T04:07:43.776Z,102775.13
2023-05-18T04:10:11.952Z,102773.44
2023-05-18T04:12:38.990Z,102777.97
2023-05-18T04:15:06.326Z,102785.13
2023-05-18T04:17:34.332Z,102777.28
2023-05-18T04:20:04.672Z,102788.69
2023-05-18T04:22:32.375Z,102793.34
2023-05-18T04:25:01.799Z,102795.53
2023-05-18T04:27:29.642Z,102797.38
2023-05-18T04:29:56.448Z,102798.19
2023-05-18T04:32:27.000Z,102796.50
2023-05-18T04:34:54.888Z,102801.53
2023-05-18T04:37:22.359Z,102803.13
2023-05-18T04:39:49.195Z,102810.94
2023-05-18T04:42:18.473Z,102806.53
2023-05-18T04:44:45.489Z,102818.03
2023-05-18T04:47:12.713Z,102818.03
2023-05-18T04:49:39.532Z,102817.72
2023-05-18T04:52:09.069Z,102821.75
2023-05-18T04:54:36.314Z,102826.19
2023-05-18T04:57:03.623Z,102835.00
2023-05-18T04:59:30.562Z,102826.13
2023-05-18T05:01:57.368Z,102830.97
2023-05-18T05:04:24.271Z,102835.78
2023-05-18T05:06:51.145Z,102832.41
2023-05-18T05:09:18.058Z,102836.09
2023-05-18T05:11:45.290Z,102845.06
2023-05-18T05:14:12.224Z,102843.75
2023-05-18T05:16:39.725Z,102852.28
2023-05-18T05:19:06.827Z,102846.34
2023-05-18T05:21:33.727Z,102855.03
2023-05-18T05:24:05.226Z,102854.56
2023-05-18T05:26:32.414Z,102853.41
2023-05-18T05:28:59.320Z,102861.38
2023-05-18T05:31:26.272Z,102865.78
2023-05-18T05:33:53.188Z,102858.34
2023-05-18T05:36:20.275Z,102857.41
2023-05-18T05:38:47.119Z,102860.09
2023-05-18T05:41:14.029Z,102864.03
2023-05-18T05:43:41.078Z,102870.31
2023-05-18T05:46:08.200Z,102864.06
2023-05-18T05:48:35.424Z,102862.47
2023-05-18T05:51:02.312Z,102863.94
2023-05-18T05:53:29.685Z,102868.88
2023-05-18T05:55:56.922Z,102855.75
2023-05-18T05:58:23.810Z,102864.34
2023-05-18T06:00:50.875Z,102862.28
2023-05-18T06:03:17.821Z,102856.72
2023-05-18T06:05:44.800Z,102864.03
2023-05-18T06:08:12.137Z,102854.63
2023-05-18T06:10:40.775Z,102855.97
2023-05-18T06:13:07.636Z,102861.19
2023-05-18T06:15:34.478Z,102865.19
2023-05-18T06:18:01.830Z,102862.72
2023-05-18T06:20:28.769Z,102872.53
2023-05-18T06:22:56.297Z,102873.38
2023-05-18T06:25:23.354Z,102859.66
2023-05-18T06:27:50.367Z,102874.25
2023-05-18T06:30:17.390Z,102875.50
2023-05-18T06:32:44.402Z,102873.69
2023-05-18T06:35:11.901Z,102880.41
2023-05-18T06:37:39.518Z,102885.44
2023-05-18T06:40:07.402Z,102884.19
2023-05-18T06:42:34.348Z,102881.31
2023-05-18T06:45:01.596Z,102886.22
2023-05-18T06:47:28.498Z,102886.91
2023-05-18T06:49:55.350Z,102876.56
2023-05-18T06:52:23.991Z,102877.78
2023-05-18T06:54:52.723Z,102881.94
2023-05-18T06:57:19.960Z,102881.25
2023-05-18T06:59:50.580Z,102888.94
2023-05-18T07:02:17.491Z,102895.59
2023-05-18T07:04:44.369Z,102901.84
2023-05-18T07:07:11.301Z,102901.66
2023-05-18T07:09:38.237Z,102896.78
2023-05-18T07:12:05.273Z,102885.59
2023-05-18T07:14:32.328Z,102904.63
2023-05-18T07:16:59.542Z,102894.53
2023-05-18T07:19:26.547Z,102910.66
2023-05-18T07:21:53.435Z,102910.41
2023-05-18T07:24:21.011Z,102908.44
2023-05-18T07:26:47.908Z,102903.41
2023-05-18T07:29:14.728Z,102904.81
2023-05-18T07:31:41.986Z,102905.88
2023-05-18T07:34:08.868Z,102904.00
2023-05-18T07:36:36.095Z,102910.69
2023-05-18T07:39:03.672Z,102913.91
2023-05-18T07:41:32.149Z,102912.09
2023-05-18T07:43:59.099Z,102919.09
2023-05-18T07:46:26.468Z,102909.03
2023-05-18T07:48:53.377Z,102917.28
2023-05-18T07:51:20.296Z,102912.00
2023-05-18T07:53:47.398Z,102913.94
2023-05-18T07:56:14.307Z,102910.22
2023-05-18T07:58:41.454Z,102913.47
2023-05-18T08:01:08.341Z,102899.59
2023-05-18T08:03:35.558Z,102906.59
2023-05-18T08:06:03.384Z,102914.03
2023-05-18T08:08:30.225Z,102916.09
2023-05-18T08:10:57.571Z,102919.56
2023-05-18T08:13:24.413Z,102913.94
2023-05-18T08:16:02.986Z,102915.06
2023-05-18T08:18:37.173Z,102917.47
2023-05-18T08:21:04.261Z,102911.38
2023-05-18T08:23:31.296Z,102912.25
2023-05-18T08:26:00.438Z,102913.97
2023-05-18T08:28:27.894Z,102918.38
2023-05-18T08:30:54.664Z,102906.94
2023-05-18T08:33:21.596Z,102912.13
2023-05-18T08:35:48.508Z,102915.88
2023-05-18T08:38:16.969Z,73387.22
2023-05-18T08:40:49.738Z,102915.88
2023-05-18T08:43:21.195Z,102904.22
2023-05-18T08:45:48.315Z,102908.66
2023-05-18T08:48:16.483Z,102910.09
2023-05-18T08:50:44.243Z,102904.69
2023-05-18T08:53:12.090Z,102898.09
2023-05-18T08:55:40.290Z,102905.69
2023-05-18T08:58:07.975Z,102904.03
2023-05-18T09:00:35.895Z,102899.19
2023-05-18T09:03:04.314Z,102898.56
2023-05-18T09:05:32.057Z,102907.75
2023-05-18T09:07:59.460Z,102888.13
2023-05-18T09:10:26.767Z,102903.50
2023-05-18T09:12:55.102Z,102904.84
2023-05-18T09:15:22.038Z,102895.34
2023-05-18T09:17:49.350Z,102905.41
2023-05-18T09:20:16.563Z,102902.81
2023-05-18T09:22:43.715Z,102896.41
2023-05-18T09:25:11.016Z,102902.31
2023-05-18T09:27:38.234Z,102909.72
2023-05-18T09:30:09.928Z,102903.41
2023-05-18T09:32:37.278Z,102903.03
2023-05-18T09:35:07.757Z,102905.19
2023-05-18T09:37:34.836Z,102900.78
2023-05-18T09:40:02.973Z,102906.09
2023-05-18T09:42:40.246Z,102902.34
2023-05-18T09:45:17.758Z,102900.28
2023-05-18T09:47:44.911Z,102900.94
2023-05-18T09:50:12.241Z,102900.66
2023-05-18T09:52:43.240Z,102899.84
2023-05-18T09:55:15.426Z,102886.81
2023-05-18T09:57:49.789Z,102894.41
2023-05-18T10:00:19.364Z,102883.56
2023-05-18T10:02:49.172Z,102883.56
2023-05-18T10:05:23.094Z,102892.81
2023-05-18T10:07:53.921Z,102880.53
2023-05-18T10:10:23.628Z,102886.78
2023-05-18T10:12:51.266Z,102894.59
2023-05-18T10:15:19.869Z,102892.22
2023-05-18T10:17:47.491Z,102892.25
2023-05-18T10:20:17.076Z,102887.94
2023-05-18T10:22:45.452Z,102885.19
2023-05-18T10:25:15.663Z,102878.56
2023-05-18T10:27:44.464Z,102868.06
2023-05-18T10:30:11.899Z,102867.13
2023-05-18T10:32:39.243Z,102862.63
2023-05-18T10:35:07.255Z,102851.88
2023-05-18T10:37:35.503Z,102861.13
2023-05-18T10:40:03.885Z,102852.69
2023-05-18T10:42:32.009Z,102862.03
2023-05-18T10:45:01.453Z,102868.69
2023-05-18T10:47:28.987Z,102864.63
2023-05-18T10:49:58.795Z,102857.72
2023-05-18T10:52:31.748Z,102857.72
2023-05-18T10:55:00.523Z,73387.22
2023-05-18T10:57:38.136Z,102839.28
2023-05-18T11:00:07.745Z,102854.09
2023-05-18T11:02:35.165Z,102857.06
2023-05-18T11:05:05.134Z,102837.28
2023-05-18T11:07:33.989Z,102838.00
2023-05-18T11:10:01.570Z,102839.03
2023-05-18T11:12:31.596Z,102842.44
2023-05-18T11:15:00.926Z,102843.53
2023-05-18T11:17:31.083Z,102834.03
2023-05-18T11:20:06.932Z,102837.06
2023-05-18T11:22:46.258Z,102838.00
2023-05-18T11:25:39.137Z,102833.50
2023-05-18T11:28:08.249Z,102839.66
2023-05-18T11:30:40.382Z,102830.50
2023-05-18T11:33:17.695Z,102825.06
2023-05-18T11:35:54.415Z,102828.84
2023-05-18T11:38:21.494Z,102819.16
2023-05-18T11:40:49.014Z,102811.75
2023-05-18T11:43:22.602Z,102825.69
2023-05-18T11:45:53.469Z,102820.38
2023-05-18T11:48:21.251Z,102828.88
2023-05-18T11:50:48.254Z,102831.16
2023-05-18T11:53:15.615Z,102820.47
2023-05-18T11:55:42.516Z,102820.47
2023-05-18T11:58:10.530Z,102817.69
2023-05-18T12:00:37.675Z,102816.66
2023-05-18T12:03:04.975Z,102811.63
2023-05-18T12:05:32.607Z,102811.63
2023-05-18T12:07:59.998Z,73387.22
2023-05-18T12:10:26.941Z,73387.22
2023-05-18T12:12:54.180Z,73387.22
2023-05-18T12:15:22.192Z,73387.22
2023-05-18T12:17:49.645Z,73387.22
2023-05-18T12:20:17.506Z,73387.22
2023-05-18T12:22:52.163Z,73387.22
2023-05-18T12:25:20.025Z,73387.22
2023-05-18T12:27:50.207Z,73387.22
2023-05-18T12:30:18.119Z,73387.22
2023-05-18T12:32:51.865Z,73387.22
2023-05-18T12:35:22.139Z,73387.22
2023-05-18T12:37:49.066Z,102798.69
2023-05-18T12:40:16.800Z,102797.63
2023-05-18T12:42:57.217Z,102792.28
2023-05-18T12:45:25.536Z,102787.72
2023-05-18T12:47:54.797Z,102785.06
2023-05-18T12:50:22.784Z,102788.59
2023-05-18T12:52:50.534Z,102777.72
2023-05-18T12:55:22.201Z,102773.91
2023-05-18T12:58:08.616Z,102761.97
2023-05-18T13:00:36.687Z,102747.66
2023-05-18T13:03:07.891Z,102776.19
2023-05-18T13:05:35.711Z,102788.41
2023-05-18T13:08:02.620Z,102759.91
2023-05-18T13:10:30.604Z,102763.81
2023-05-18T13:13:03.928Z,102767.81
2023-05-18T13:15:35.674Z,102777.56
2023-05-18T13:18:09.793Z,102773.59
2023-05-18T13:20:40.974Z,102767.75
2023-05-18T13:23:12.713Z,102777.50
2023-05-18T13:25:43.118Z,102772.63
2023-05-18T13:28:11.338Z,102766.09
2023-05-18T13:30:39.142Z,102755.47
2023-05-18T13:33:08.559Z,102745.41
2023-05-18T13:35:36.136Z,102753.59
2023-05-18T13:38:02.986Z,102749.41
2023-05-18T13:40:30.189Z,102758.31
2023-05-18T13:42:57.088Z,102754.06
2023-05-18T13:45:24.123Z,102746.88
2023-05-18T13:47:51.775Z,102753.28
2023-05-18T13:50:19.328Z,102760.91
2023-05-18T13:52:47.494Z,102755.53
2023-05-18T13:55:14.542Z,102751.28
2023-05-18T13:57:41.769Z,102742.81
2023-05-18T14:00:11.270Z,102742.81
2023-05-18T14:02:38.307Z,73387.22
2023-05-18T14:05:08.503Z,102737.25
2023-05-18T14:07:35.995Z,102734.41
2023-05-18T14:10:03.289Z,102727.38
2023-05-18T14:12:30.213Z,102722.88
2023-05-18T14:14:57.040Z,102731.03
2023-05-18T14:17:24.097Z,102726.88
2023-05-18T14:19:51.004Z,102723.47
2023-05-18T14:22:18.859Z,102721.50
2023-05-18T14:24:45.879Z,102718.91
2023-05-18T14:27:12.786Z,102717.75
2023-05-18T14:29:39.782Z,102721.28
2023-05-18T14:32:07.245Z,102718.63
2023-05-18T14:34:34.135Z,102721.72
2023-05-18T14:37:01.089Z,102719.31
2023-05-18T14:39:28.012Z,102710.84
2023-05-18T14:41:54.865Z,102715.53
2023-05-18T14:44:21.829Z,102711.47
2023-05-18T14:46:49.063Z,102706.06
2023-05-18T14:49:16.219Z,102704.91
2023-05-18T14:51:43.147Z,102706.84
2023-05-18T14:54:09.994Z,102713.34
2023-05-18T14:56:36.806Z,102702.44
2023-05-18T14:59:03.648Z,102700.88
2023-05-18T15:01:30.769Z,102710.50
2023-05-18T15:03:58.131Z,102710.22
2023-05-18T15:06:25.623Z,102712.56
2023-05-18T15:08:52.734Z,102694.81
2023-05-18T15:11:20.833Z,102710.56
2023-05-18T15:13:48.034Z,102709.78
2023-05-18T15:16:16.086Z,102701.63
2023-05-18T15:18:43.126Z,102711.16
2023-05-18T15:21:09.995Z,102699.59
2023-05-18T15:23:36.871Z,102700.41
2023-05-18T15:26:04.389Z,102699.78
2023-05-18T15:28:32.098Z,102707.75
2023-05-18T15:30:58.973Z,102710.72
2023-05-18T15:33:25.840Z,102697.94
2023-05-18T15:35:52.757Z,102705.44
2023-05-18T15:38:19.585Z,102702.88
2023-05-18T15:40:47.896Z,102694.00
2023-05-18T15:43:14.717Z,102700.41
2023-05-18T15:45:41.729Z,102696.59
2023-05-18T15:48:09.193Z,102694.44
2023-05-18T15:50:35.975Z,102692.97
2023-05-18T15:53:03.113Z,102700.31
2023-05-18T15:55:30.009Z,102694.63
2023-05-18T15:57:56.878Z,102696.97
2023-05-18T16:00:24.249Z,102692.84
2023-05-18T16:02:51.183Z,102697.13
2023-05-18T16:05:18.411Z,102699.19
2023-05-18T16:07:46.329Z,102692.41
2023-05-18T16:10:14.671Z,102693.22
2023-05-18T16:12:41.578Z,102692.00
2023-05-18T16:15:08.700Z,102685.59
2023-05-18T16:17:36.215Z,102693.50
2023-05-18T16:20:04.026Z,102702.47
2023-05-18T16:22:31.341Z,102700.13
2023-05-18T16:24:58.989Z,102702.47
2023-05-18T16:27:26.317Z,102695.75
2023-05-18T16:29:53.256Z,102703.94
2023-05-18T16:32:20.150Z,102694.31
2023-05-18T16:34:47.258Z,102695.91
2023-05-18T16:37:14.521Z,102699.81
2023-05-18T16:39:41.637Z,102697.88
2023-05-18T16:42:09.520Z,102696.53
2023-05-18T16:44:36.799Z,102706.03
2023-05-18T16:47:03.847Z,102708.69
2023-05-18T16:49:30.893Z,102712.59
2023-05-18T16:51:57.868Z,102709.25
2023-05-18T16:54:25.020Z,102701.31
2023-05-18T16:56:52.017Z,102705.25
2023-05-18T16:59:20.377Z,102701.84
2023-05-18T17:01:47.441Z,102700.06
2023-05-18T17:04:14.592Z,102700.66
2023-05-18T17:06:42.141Z,102696.47
2023-05-18T17:09:09.063Z,102696.31
2023-05-18T17:11:36.131Z,102700.44
2023-05-18T17:14:03.194Z,102700.13
2023-05-18T17:16:33.267Z,102706.44
2023-05-18T17:19:00.274Z,102710.34
2023-05-18T17:21:28.534Z,102713.97
2023-05-18T17:23:55.878Z,102711.53
2023-05-18T17:26:24.990Z,102719.72
2023-05-18T17:28:51.986Z,102711.75
2023-05-18T17:31:18.984Z,102711.50
2023-05-18T17:33:47.464Z,102712.94
2023-05-18T17:36:17.101Z,102705.06
2023-05-18T17:38:47.369Z,102705.63
2023-05-18T17:41:14.299Z,102703.75
2023-05-18T17:43:41.210Z,102706.97
2023-05-18T17:46:08.093Z,102709.63
2023-05-18T17:48:35.351Z,102716.59
2023-05-18T17:51:02.883Z,102715.06
2023-05-18T17:53:29.731Z,102706.03
2023-05-18T17:55:56.887Z,102704.81
2023-05-18T17:58:23.906Z,102704.38
2023-05-18T18:00:50.868Z,102703.97
2023-05-18T18:03:18.029Z,102711.31
2023-05-18T18:05:44.914Z,102708.31
2023-05-18T18:08:13.773Z,102713.72
2023-05-18T18:10:40.689Z,102714.22
2023-05-18T18:13:07.639Z,102714.09
2023-05-18T18:15:34.887Z,102714.63
2023-05-18T18:18:01.764Z,102714.88
2023-05-18T18:20:29.033Z,102720.50
2023-05-18T18:22:55.986Z,102720.69
2023-05-18T18:25:22.917Z,102719.22
2023-05-18T18:27:49.841Z,102724.78
2023-05-18T18:30:16.875Z,102726.66
2023-05-18T18:32:43.870Z,102726.78
2023-05-18T18:35:10.871Z,102732.84
2023-05-18T18:37:38.095Z,102722.56
2023-05-18T18:40:06.884Z,102735.97
2023-05-18T18:42:33.731Z,102727.38
2023-05-18T18:45:00.763Z,102725.88
2023-05-18T18:47:27.682Z,102735.72
2023-05-18T18:49:54.624Z,102732.94
2023-05-18T18:52:21.450Z,102731.03
2023-05-18T18:54:48.671Z,102740.94
2023-05-18T18:57:15.815Z,102742.91
2023-05-18T18:59:42.696Z,102748.72
2023-05-18T19:02:09.714Z,102747.13
2023-05-18T19:04:36.769Z,102755.84
2023-05-18T19:07:04.775Z,102753.47
2023-05-18T19:09:34.810Z,102752.66
2023-05-18T19:12:02.000Z,102753.03
2023-05-18T19:14:28.872Z,102756.34
2023-05-18T19:16:56.490Z,102759.91
2023-05-18T19:19:23.381Z,102755.56
2023-05-18T19:21:50.862Z,102758.53
2023-05-18T19:24:18.048Z,102757.78
2023-05-18T19:26:45.167Z,102753.69
2023-05-18T19:29:12.967Z,102764.81
2023-05-18T19:31:40.330Z,102761.84
2023-05-18T19:34:07.810Z,102763.75
2023-05-18T19:36:35.775Z,102765.66
2023-05-18T19:39:03.173Z,102768.91
2023-05-18T19:41:30.296Z,102768.38
2023-05-18T19:43:57.143Z,102765.66
2023-05-18T19:46:24.029Z,102764.84
2023-05-18T19:48:51.338Z,102764.56
2023-05-18T19:51:18.580Z,102767.56
2023-05-18T19:53:45.637Z,102772.38
2023-05-18T19:56:12.942Z,102770.22
2023-05-18T19:58:39.828Z,102770.47
2023-05-18T20:01:07.095Z,102769.28
2023-05-18T20:03:34.605Z,102769.53
2023-05-18T20:06:01.462Z,102754.38
2023-05-18T20:08:28.683Z,102771.56
2023-05-18T20:10:55.688Z,102773.25
2023-05-18T20:13:22.918Z,102777.06
2023-05-18T20:15:49.979Z,102774.34
2023-05-18T20:18:17.013Z,102772.72
2023-05-18T20:20:44.178Z,102776.97
2023-05-18T20:23:11.734Z,102774.25
2023-05-18T20:25:38.600Z,102763.03
2023-05-18T20:28:08.471Z,102768.31
2023-05-18T20:30:35.395Z,102773.91
2023-05-18T20:33:04.429Z,102779.13
2023-05-18T20:35:31.948Z,102782.50
2023-05-18T20:37:59.810Z,102781.34
2023-05-18T20:40:27.591Z,102784.50
2023-05-18T20:42:54.513Z,102781.31
2023-05-18T20:45:22.391Z,102787.34
2023-05-18T20:47:51.195Z,102786.53
2023-05-18T20:50:23.044Z,102788.88
2023-05-18T20:52:51.019Z,102788.50
2023-05-18T20:55:18.489Z,102785.50
2023-05-18T20:57:49.216Z,102784.81
2023-05-18T21:00:16.585Z,102785.88
2023-05-18T21:02:48.257Z,102790.19
2023-05-18T21:05:16.537Z,102794.88
2023-05-18T21:07:44.514Z,102786.97
2023-05-18T21:10:12.193Z,102796.19
2023-05-18T21:12:39.543Z,102798.19
2023-05-18T21:15:06.947Z,102796.97
2023-05-18T21:17:34.546Z,102802.91
2023-05-18T21:20:01.542Z,102799.22
2023-05-18T21:22:28.874Z,102800.78
2023-05-18T21:24:56.200Z,102801.91
2023-05-18T21:27:23.370Z,102800.00
2023-05-18T21:29:50.613Z,102800.78
2023-05-18T21:32:17.553Z,102803.53
2023-05-18T21:34:44.537Z,102800.69
2023-05-18T21:37:12.202Z,102797.56
2023-05-18T21:39:41.970Z,102795.38
2023-05-18T21:42:09.265Z,102793.72
2023-05-18T21:44:36.453Z,102800.13
2023-05-18T21:47:03.399Z,102797.81
2023-05-18T21:49:30.714Z,102800.97
2023-05-18T21:51:58.165Z,102798.94
2023-05-18T21:54:26.490Z,102801.72
2023-05-18T21:56:53.861Z,102795.59
2023-05-18T21:59:20.707Z,102803.22
2023-05-18T22:01:47.611Z,102793.19
2023-05-18T22:04:14.450Z,102801.28
2023-05-18T22:06:41.626Z,102805.25
2023-05-18T22:09:08.558Z,102802.81
2023-05-18T22:11:36.257Z,102806.44
2023-05-18T22:14:03.722Z,102800.50
2023-05-18T22:16:31.779Z,102798.75
2023-05-18T22:18:58.759Z,102797.22
2023-05-18T22:21:25.755Z,102801.78
2023-05-18T22:23:52.636Z,102800.09
2023-05-18T22:26:20.693Z,102799.59
2023-05-18T22:28:47.647Z,102795.28
2023-05-18T22:31:14.507Z,102796.09
2023-05-18T22:33:41.295Z,102793.16
2023-05-18T22:36:08.252Z,102800.66
2023-05-18T22:38:35.071Z,102802.78
2023-05-18T22:41:02.176Z,102784.25
2023-05-18T22:43:29.852Z,102799.81
2023-05-18T22:45:56.710Z,102802.28
2023-05-18T22:48:25.789Z,102795.47
2023-05-18T22:50:52.778Z,102803.19
2023-05-18T22:53:19.989Z,102802.47
2023-05-18T22:55:46.979Z,102799.09
2023-05-18T22:58:16.690Z,102793.91
2023-05-18T23:00:43.585Z,102796.31
2023-05-18T23:03:11.064Z,102802.28
2023-05-18T23:05:41.427Z,102785.84
2023-05-18T23:08:08.470Z,102799.78
2023-05-18T23:10:37.798Z,102795.75
2023-05-18T23:13:04.989Z,102788.59
2023-05-18T23:15:31.906Z,102792.66
2023-05-18T23:17:58.950Z,102791.03
2023-05-18T23:20:26.009Z,102794.09
2023-05-18T23:22:53.144Z,102793.63
2023-05-18T23:25:20.025Z,102789.81
2023-05-18T23:27:47.058Z,102801.28
2023-05-18T23:30:14.500Z,102807.03
2023-05-18T23:32:41.663Z,102801.94
2023-05-18T23:35:09.025Z,102793.13
2023-05-18T23:37:39.893Z,102794.13
2023-05-18T23:40:08.911Z,102793.63
2023-05-18T23:42:36.230Z,102789.66
2023-05-18T23:45:03.647Z,102792.09
2023-05-18T23:47:30.684Z,102792.28
2023-05-18T23:49:58.001Z,102796.31
2023-05-18T23:52:29.321Z,102781.59
2023-05-18T23:54:58.679Z,102782.03
2023-05-18T23:57:25.674Z,102780.16
2023-05-18T23:59:53.201Z,102782.84
